Time;durP1;ratioP1;P1;durP2;ratioP2;P2;SDS_P1;SDS_P2;PMS_P1;PMS_P2;Temp;Humidity;BMP_temperature;BMP_pressure;BME280_temperature;BME280_humidity;BME280_pressure;Samples;Min_cycle;Max_cycle;Signal;HPM_P1;HPM_P2
2023/04/05 00:01:30;;;;;;;6.77;3.47;;;3.90;99.90;;;;;;4960927;28;20177;-82
2023/04/05 00:03:57;;;;;;;7.67;3.63;;;3.80;99.90;;;;;;4957611;28;20266;-82
2023/04/05 00:06:25;;;;;;;7.87;3.93;;;3.80;99.90;;;;;;4957393;28;20231;-82
2023/04/05 00:09:00;;;;;;;7.93;3.30;;;3.80;99.90;;;;;;4957933;28;20225;-82
2023/04/05 00:11:28;;;;;;;7.33;3.40;;;3.80;99.90;;;;;;4954770;28;20291;-82
2023/04/05 00:13:55;;;;;;;6.07;3.50;;;3.80;99.90;;;;;;4963499;28;20221;-81
2023/04/05 00:16:21;;;;;;;7.07;3.23;;;3.80;99.90;;;;;;4956890;28;20170;-81
2023/04/05 00:18:50;;;;;;;9.00;3.80;;;3.70;99.90;;;;;;4978167;23;20237;-74
2023/04/05 00:21:20;;;;;;;5.63;3.00;;;3.70;99.90;;;;;;4980647;28;20852;-76
2023/04/05 00:23:47;;;;;;;5.77;2.90;;;3.60;99.90;;;;;;4975929;28;20684;-76
2023/04/05 00:26:13;;;;;;;6.53;2.90;;;3.60;99.90;;;;;;4972562;28;20879;-75
2023/04/05 00:28:39;;;;;;;7.87;3.13;;;3.60;99.90;;;;;;4972643;28;20296;-77
2023/04/05 00:31:05;;;;;;;10.10;3.20;;;3.60;99.90;;;;;;4983335;28;20587;-77
2023/04/05 00:33:31;;;;;;;3.40;2.13;;;3.60;99.90;;;;;;4978666;28;20202;-77
2023/04/05 00:35:56;;;;;;;5.07;2.30;;;3.60;99.90;;;;;;4967717;28;20226;-77
2023/04/05 00:38:22;;;;;;;4.80;2.40;;;3.50;99.90;;;;;;4976719;28;20276;-77
2023/04/05 00:40:47;;;;;;;2.93;2.30;;;3.50;99.90;;;;;;4985057;28;20211;-77
2023/04/05 00:43:13;;;;;;;6.07;3.03;;;3.50;99.90;;;;;;4985215;28;20275;-77
2023/04/05 00:45:39;;;;;;;5.13;2.60;;;3.40;99.90;;;;;;4981104;28;20208;-75
2023/04/05 00:48:05;;;;;;;9.17;2.77;;;3.40;99.90;;;;;;4982150;28;20217;-78
2023/04/05 00:50:31;;;;;;;3.67;2.00;;;3.40;99.90;;;;;;4974452;28;20262;-77
2023/04/05 00:52:57;;;;;;;4.23;2.57;;;3.40;99.90;;;;;;4975346;28;20229;-76
2023/04/05 00:55:25;;;;;;;6.73;3.00;;;3.40;99.90;;;;;;4981047;28;20174;-77
2023/04/05 00:57:52;;;;;;;5.03;2.47;;;3.40;99.90;;;;;;4974828;28;20237;-77
2023/04/05 01:00:20;;;;;;;4.10;2.40;;;3.30;99.90;;;;;;4974008;28;20209;-77
2023/04/05 01:02:53;;;;;;;7.60;2.83;;;3.30;99.90;;;;;;4984324;28;20239;-77
2023/04/05 01:05:39;;;;;;;3.90;2.30;;;3.30;99.90;;;;;;4974147;28;20219;-79
2023/04/05 01:08:46;;;;;;;7.63;2.83;;;3.30;99.90;;;;;;4978352;28;20241;-76
2023/04/05 01:11:13;;;;;;;7.23;2.53;;;3.30;99.90;;;;;;4977063;28;20216;-77
2023/04/05 01:13:39;;;;;;;7.23;2.70;;;3.30;99.90;;;;;;4976430;28;20212;-76
2023/04/05 01:16:05;;;;;;;4.47;2.43;;;3.30;99.90;;;;;;4983686;28;20647;-76
2023/04/05 01:18:31;;;;;;;6.57;2.17;;;3.20;99.90;;;;;;4966241;28;20221;-75
2023/04/05 01:21:39;;;;;;;3.53;2.30;;;3.20;99.90;;;;;;4966214;28;20237;-74
2023/04/05 01:24:45;;;;;;;7.33;3.20;;;3.20;99.90;;;;;;4979318;28;20213;-77
2023/04/05 01:27:21;;;;;;;4.47;2.60;;;3.10;99.90;;;;;;4976509;28;20721;-77
2023/04/05 01:30:03;;;;;;;4.97;2.73;;;3.00;99.90;;;;;;4970882;28;20234;-77
2023/04/05 01:32:47;;;;;;;4.83;2.87;;;3.00;99.90;;;;;;4967602;28;20662;-76
2023/04/05 01:35:17;;;;;;;7.30;3.37;;;3.00;99.90;;;;;;4991843;28;20221;-75
2023/04/05 01:37:47;;;;;;;4.50;2.60;;;3.00;99.90;;;;;;4987462;28;20226;-77
2023/04/05 01:40:13;;;;;;;7.13;2.90;;;3.00;99.90;;;;;;4974997;28;20178;-76
2023/04/05 01:42:39;;;;;;;7.40;2.93;;;3.00;99.90;;;;;;4974803;28;20216;-77
2023/04/05 01:45:05;;;;;;;5.50;3.03;;;3.00;99.90;;;;;;4969450;28;20305;-76
2023/04/05 01:47:31;;;;;;;5.87;3.17;;;3.00;99.90;;;;;;4973895;28;20695;-75
2023/04/05 01:49:56;;;;;;;6.47;3.17;;;3.00;99.90;;;;;;4975233;28;20582;-77
2023/04/05 01:52:22;;;;;;;6.80;3.40;;;3.00;99.90;;;;;;4977707;28;20180;-76
2023/04/05 01:54:48;;;;;;;8.37;3.87;;;2.90;99.90;;;;;;4973364;28;20173;-76
2023/04/05 01:57:13;;;;;;;10.53;4.27;;;2.90;99.90;;;;;;4977130;28;20587;-76
2023/04/05 01:59:39;;;;;;;6.90;3.80;;;3.00;99.90;;;;;;4973307;28;20209;-77
2023/04/05 02:02:05;;;;;;;8.00;3.50;;;3.00;99.90;;;;;;4977082;28;20229;-76
2023/04/05 02:04:30;;;;;;;7.83;3.83;;;3.00;99.90;;;;;;4979359;28;20210;-77
2023/04/05 02:06:56;;;;;;;7.47;3.57;;;3.00;99.90;;;;;;4978258;28;20186;-76
2023/04/05 02:09:21;;;;;;;7.27;3.73;;;3.00;99.90;;;;;;4965639;28;20637;-75
2023/04/05 02:11:47;;;;;;;12.67;3.50;;;3.00;99.90;;;;;;4963757;28;20221;-76
2023/04/05 02:14:13;;;;;;;8.23;3.80;;;3.00;99.90;;;;;;4968234;28;20218;-76
2023/04/05 02:16:38;;;;;;;8.03;3.90;;;3.10;99.90;;;;;;4973886;28;20214;-76
2023/04/05 02:19:05;;;;;;;9.17;3.73;;;3.10;99.90;;;;;;4980187;28;20214;-76
2023/04/05 02:21:31;;;;;;;7.93;3.97;;;3.10;99.90;;;;;;4980613;28;20229;-77
2023/04/05 02:23:56;;;;;;;10.63;5.23;;;3.10;99.90;;;;;;4979359;28;20206;-76
2023/04/05 02:26:22;;;;;;;8.47;3.77;;;3.10;99.90;;;;;;4981883;28;20287;-77
2023/04/05 02:28:48;;;;;;;9.03;3.97;;;3.10;99.90;;;;;;4973825;28;20226;-77
2023/04/05 02:31:14;;;;;;;6.50;3.53;;;3.10;99.90;;;;;;4980135;28;20648;-77
2023/04/05 02:33:40;;;;;;;5.17;2.97;;;3.20;99.90;;;;;;4974464;28;20295;-76
2023/04/05 02:36:10;;;;;;;6.50;3.13;;;3.20;99.90;;;;;;4980788;28;20237;-76
2023/04/05 02:38:36;;;;;;;7.00;2.80;;;3.20;99.90;;;;;;4970678;28;20224;-74
2023/04/05 02:41:02;;;;;;;6.17;2.83;;;3.20;99.90;;;;;;4973595;28;20346;-74
2023/04/05 02:43:28;;;;;;;8.10;3.33;;;3.20;99.90;;;;;;4986233;28;20174;-75
2023/04/05 02:45:54;;;;;;;8.17;3.30;;;3.10;99.90;;;;;;4989338;28;20205;-76
2023/04/05 02:48:20;;;;;;;7.03;3.47;;;3.20;99.90;;;;;;4979224;28;20276;-77
2023/04/05 02:50:50;;;;;;;5.63;3.20;;;3.20;99.90;;;;;;4972239;28;20207;-77
2023/04/05 02:53:17;;;;;;;5.93;3.27;;;3.10;99.90;;;;;;4977489;28;20266;-77
2023/04/05 02:55:50;;;;;;;6.00;3.40;;;3.20;99.90;;;;;;4975417;28;20213;-75
2023/04/05 02:58:16;;;;;;;7.73;3.33;;;3.20;99.90;;;;;;4989863;28;20252;-77
2023/04/05 03:00:49;;;;;;;6.40;3.03;;;3.20;99.90;;;;;;4979070;28;20263;-77
2023/04/05 03:03:18;;;;;;;6.80;3.27;;;3.20;99.90;;;;;;4980895;28;20255;-76
2023/04/05 03:05:46;;;;;;;4.63;3.13;;;3.20;99.90;;;;;;4972019;28;20206;-77
2023/04/05 03:08:18;;;;;;;7.20;3.30;;;3.20;99.90;;;;;;4975929;28;20217;-76
2023/04/05 03:10:46;;;;;;;7.80;3.20;;;3.30;99.90;;;;;;4980554;28;20230;-76
2023/04/05 03:13:13;;;;;;;9.10;3.80;;;3.20;99.90;;;;;;4981317;28;20206;-77
2023/04/05 03:15:39;;;;;;;8.03;3.63;;;3.30;99.90;;;;;;4981179;28;20235;-76
2023/04/05 03:18:05;;;;;;;5.73;3.10;;;3.20;99.90;;;;;;4981563;28;20239;-77
2023/04/05 03:20:34;;;;;;;7.73;3.47;;;3.20;99.90;;;;;;4979520;28;20300;-76
2023/04/05 03:22:59;;;;;;;6.07;3.60;;;3.30;99.90;;;;;;4974356;28;20218;-76
2023/04/05 03:25:25;;;;;;;7.13;3.70;;;3.30;99.90;;;;;;4984170;28;20555;-77
2023/04/05 03:27:51;;;;;;;6.80;3.30;;;3.30;99.90;;;;;;4988167;28;20256;-76
2023/04/05 03:30:17;;;;;;;9.53;4.77;;;3.40;99.90;;;;;;4982786;28;20214;-77
2023/04/05 03:32:43;;;;;;;6.07;2.90;;;3.30;99.90;;;;;;4975351;28;20210;-76
2023/04/05 03:35:08;;;;;;;6.77;3.63;;;3.30;99.90;;;;;;4975540;28;20221;-75
2023/04/05 03:37:34;;;;;;;5.50;3.53;;;3.30;99.90;;;;;;4974653;28;20281;-77
2023/04/05 03:40:00;;;;;;;6.27;3.40;;;3.30;99.90;;;;;;4973498;28;20203;-75
2023/04/05 03:42:26;;;;;;;7.63;3.73;;;3.30;99.90;;;;;;4982501;28;20213;-77
2023/04/05 03:44:52;;;;;;;6.03;2.87;;;3.30;99.90;;;;;;4974221;28;20249;-76
2023/04/05 03:47:18;;;;;;;8.23;3.10;;;3.30;99.90;;;;;;4995519;28;20215;-77
2023/04/05 03:49:44;;;;;;;7.60;3.20;;;3.30;99.90;;;;;;4976229;28;20219;-76
2023/04/05 03:52:09;;;;;;;6.00;3.20;;;3.20;99.90;;;;;;4975227;28;20170;-77
2023/04/05 03:54:35;;;;;;;6.97;3.37;;;3.30;99.90;;;;;;4980722;28;20524;-76
2023/04/05 03:57:01;;;;;;;7.47;3.33;;;3.30;99.90;;;;;;4985898;28;20212;-74
2023/04/05 03:59:27;;;;;;;7.22;4.10;;;3.30;99.90;;;;;;4977053;28;20427;-76
2023/04/05 04:01:53;;;;;;;10.60;3.90;;;3.30;99.90;;;;;;4981695;28;20222;-75
2023/04/05 04:04:18;;;;;;;7.80;3.30;;;3.30;99.90;;;;;;4981713;28;20179;-76
2023/04/05 04:06:44;;;;;;;8.27;3.17;;;3.20;99.90;;;;;;4980595;28;20171;-76
2023/04/05 04:09:10;;;;;;;12.23;3.30;;;3.30;99.90;;;;;;4983512;28;20289;-76
2023/04/05 04:11:35;;;;;;;6.23;3.33;;;3.20;99.90;;;;;;4979598;28;20214;-76
2023/04/05 04:14:01;;;;;;;7.97;3.40;;;3.30;99.90;;;;;;4979613;28;20221;-73
2023/04/05 04:16:26;;;;;;;9.27;3.10;;;3.30;99.90;;;;;;4978691;28;20671;-75
2023/04/05 04:18:53;;;;;;;6.53;3.40;;;3.30;99.90;;;;;;4975408;28;20221;-75
2023/04/05 04:21:23;;;;;;;7.80;3.83;;;3.20;99.90;;;;;;4977146;28;20208;-76
2023/04/05 04:23:50;;;;;;;5.97;3.33;;;3.20;99.90;;;;;;4972561;28;20689;-76
2023/04/05 04:26:27;;;;;;;16.80;3.90;;;3.20;99.90;;;;;;4988439;28;20213;-74
2023/04/05 04:28:53;;;;;;;7.13;3.47;;;3.20;99.90;;;;;;4980539;28;20714;-75
2023/04/05 04:31:20;;;;;;;5.97;3.23;;;3.30;99.90;;;;;;4988505;28;20189;-75
2023/04/05 04:33:48;;;;;;;8.63;3.87;;;3.20;99.90;;;;;;4988636;28;20173;-76
2023/04/05 04:36:13;;;;;;;9.07;3.13;;;3.20;99.90;;;;;;4972964;28;20207;-76
2023/04/05 04:38:41;;;;;;;5.17;3.00;;;3.20;99.90;;;;;;4979650;28;20219;-76
2023/04/05 04:41:12;;;;;;;7.67;3.60;;;3.30;99.90;;;;;;4983317;28;20252;-76
2023/04/05 04:43:42;;;;;;;8.20;3.13;;;3.30;99.90;;;;;;4989971;28;20701;-76
2023/04/05 04:46:13;;;;;;;6.97;3.30;;;3.30;99.90;;;;;;4977424;28;20188;-73
2023/04/05 04:48:42;;;;;;;5.97;3.33;;;3.30;99.90;;;;;;4977340;28;20214;-76
2023/04/05 04:51:08;;;;;;;6.23;3.47;;;3.30;99.90;;;;;;4985314;28;20213;-74
2023/04/05 04:53:33;;;;;;;5.17;2.73;;;3.30;99.90;;;;;;4994757;28;20567;-76
2023/04/05 04:55:59;;;;;;;7.23;3.23;;;3.40;99.90;;;;;;4977664;28;20207;-76
2023/04/05 04:58:25;;;;;;;7.03;3.17;;;3.40;99.90;;;;;;4978878;28;20217;-75
2023/04/05 05:00:51;;;;;;;6.03;3.17;;;3.40;99.90;;;;;;4975706;28;20213;-75
2023/04/05 05:03:17;;;;;;;6.17;3.20;;;3.40;99.90;;;;;;4976288;28;20215;-76
2023/04/05 05:05:48;;;;;;;6.33;2.80;;;3.40;99.90;;;;;;4976183;28;20205;-76
2023/04/05 05:08:13;;;;;;;7.90;3.70;;;3.40;99.90;;;;;;4976355;28;20258;-75
2023/04/05 05:10:39;;;;;;;4.77;3.03;;;3.40;99.90;;;;;;4978125;28;20638;-75
2023/04/05 05:13:05;;;;;;;6.23;3.20;;;3.40;99.90;;;;;;4972916;28;20186;-75
2023/04/05 05:15:31;;;;;;;7.50;2.53;;;3.50;99.90;;;;;;4978489;28;20223;-76
2023/04/05 05:17:57;;;;;;;5.53;3.13;;;3.50;99.90;;;;;;4975858;28;20244;-76
2023/04/05 05:20:24;;;;;;;7.20;3.20;;;3.60;99.90;;;;;;4972860;28;20250;-76
2023/04/05 05:22:50;;;;;;;5.63;3.20;;;3.60;99.90;;;;;;4975744;28;20276;-75
2023/04/05 05:25:15;;;;;;;6.77;2.70;;;3.60;99.90;;;;;;4981704;28;20257;-75
2023/04/05 05:27:41;;;;;;;5.80;2.50;;;3.60;99.90;;;;;;4981311;28;20184;-74
2023/04/05 05:30:08;;;;;;;5.63;3.30;;;3.60;99.90;;;;;;4975766;28;20699;-76
2023/04/05 05:32:33;;;;;;;5.43;2.77;;;3.60;99.90;;;;;;4975772;28;20227;-76
2023/04/05 05:34:59;;;;;;;5.93;2.77;;;3.70;99.90;;;;;;4979872;28;20711;-75
2023/04/05 05:37:32;;;;;;;5.60;2.87;;;3.70;99.90;;;;;;4974508;28;20252;-76
2023/04/05 05:39:58;;;;;;;8.63;2.70;;;3.80;99.90;;;;;;4976226;28;20207;-76
2023/04/05 05:42:25;;;;;;;7.03;3.00;;;3.80;99.90;;;;;;4975710;28;20206;-76
2023/04/05 05:44:50;;;;;;;6.87;2.47;;;3.80;99.90;;;;;;4976718;28;20206;-76
2023/04/05 05:47:16;;;;;;;4.20;2.73;;;3.80;99.90;;;;;;4978761;28;20324;-76
2023/04/05 05:49:41;;;;;;;15.77;3.33;;;3.90;99.90;;;;;;4975593;28;20635;-76
2023/04/05 05:52:07;;;;;;;10.30;3.00;;;4.00;99.90;;;;;;4974510;28;20232;-76
2023/04/05 05:54:32;;;;;;;7.30;2.40;;;4.00;99.90;;;;;;4975491;28;20549;-76
2023/04/05 05:56:58;;;;;;;7.37;3.20;;;4.10;99.90;;;;;;4974772;28;20244;-76
2023/04/05 05:59:24;;;;;;;7.80;3.10;;;4.20;99.90;;;;;;4974469;28;20580;-76
2023/04/05 06:01:50;;;;;;;6.10;2.80;;;4.20;99.90;;;;;;4974792;28;20684;-76
2023/04/05 06:04:16;;;;;;;8.47;2.70;;;4.20;99.90;;;;;;4972546;28;20186;-75
2023/04/05 06:06:42;;;;;;;5.80;2.63;;;4.30;99.90;;;;;;4976052;28;20173;-76
2023/04/05 06:09:09;;;;;;;5.80;2.57;;;4.40;99.90;;;;;;4982474;28;20232;-76
2023/04/05 06:11:35;;;;;;;6.97;3.23;;;4.50;99.90;;;;;;4973708;28;20202;-77
2023/04/05 06:14:01;;;;;;;6.93;2.87;;;4.60;99.90;;;;;;4972326;28;20260;-74
2023/04/05 06:16:29;;;;;;;6.87;3.17;;;4.80;99.90;;;;;;4973266;28;20187;-77
2023/04/05 06:18:55;;;;;;;6.13;2.87;;;5.50;99.90;;;;;;4973463;28;20245;-76
2023/04/05 06:21:21;;;;;;;7.50;3.20;;;6.00;99.90;;;;;;4978925;28;20214;-76
2023/04/05 06:23:47;;;;;;;6.63;3.00;;;6.40;99.90;;;;;;4973664;28;20592;-76
2023/04/05 06:26:19;;;;;;;9.73;3.23;;;6.80;99.90;;;;;;4976719;28;20214;-76
2023/04/05 06:28:46;;;;;;;7.30;3.00;;;6.90;99.90;;;;;;4980111;28;20216;-76
2023/04/05 06:31:14;;;;;;;6.57;2.73;;;7.10;99.90;;;;;;4975499;28;20206;-76
2023/04/05 06:33:40;;;;;;;4.50;2.47;;;7.40;99.90;;;;;;4976653;28;20206;-76
2023/04/05 06:36:06;;;;;;;5.60;2.50;;;7.60;99.90;;;;;;4977987;28;20312;-76
2023/04/05 06:38:32;;;;;;;5.07;2.27;;;7.90;99.90;;;;;;4974265;28;20652;-77
2023/04/05 06:40:57;;;;;;;5.13;2.40;;;7.60;99.90;;;;;;4975901;28;20238;-76
2023/04/05 06:43:23;;;;;;;9.70;2.33;;;7.70;99.90;;;;;;4974250;28;20265;-76
2023/04/05 06:45:49;;;;;;;6.03;2.60;;;8.00;99.90;;;;;;4975004;28;20759;-77
2023/04/05 06:48:14;;;;;;;6.77;2.33;;;7.60;99.90;;;;;;4973569;28;20214;-74
2023/04/05 06:50:40;;;;;;;3.70;1.97;;;7.50;99.90;;;;;;4973751;28;20580;-77
2023/04/05 06:53:06;;;;;;;2.93;2.43;;;7.40;99.90;;;;;;4973666;28;20214;-77
2023/04/05 06:55:32;;;;;;;5.83;3.30;;;7.30;99.90;;;;;;4975188;28;20179;-78
2023/04/05 06:57:58;;;;;;;6.80;3.00;;;7.10;99.90;;;;;;4976278;28;20615;-77
2023/04/05 07:00:23;;;;;;;6.03;3.03;;;7.10;99.90;;;;;;4982626;28;20693;-77
2023/04/05 07:02:49;;;;;;;5.40;2.70;;;6.90;99.90;;;;;;4980570;28;20858;-77
2023/04/05 07:05:15;;;;;;;3.63;2.67;;;6.80;99.90;;;;;;4976040;28;20211;-77
2023/04/05 07:07:43;;;;;;;6.03;3.07;;;6.90;99.90;;;;;;4979820;28;20229;-77
2023/04/05 07:10:09;;;;;;;4.50;2.50;;;6.80;99.90;;;;;;4973936;28;20175;-76
2023/04/05 07:12:35;;;;;;;5.23;2.90;;;6.90;99.90;;;;;;4976307;28;20214;-77
2023/04/05 07:15:01;;;;;;;6.53;2.67;;;6.90;99.90;;;;;;4977108;28;20353;-76
2023/04/05 07:17:26;;;;;;;5.90;2.50;;;6.60;99.90;;;;;;4975466;28;20253;-75
2023/04/05 07:19:52;;;;;;;8.17;3.00;;;6.70;99.90;;;;;;4973021;28;20280;-76
2023/04/05 07:22:18;;;;;;;4.83;3.00;;;6.50;99.90;;;;;;4973374;28;20332;-74
2023/04/05 07:24:45;;;;;;;4.30;2.50;;;6.50;99.90;;;;;;4975058;28;20170;-77
2023/04/05 07:27:11;;;;;;;6.22;3.17;;;6.70;99.90;;;;;;4971018;28;20505;-76
2023/04/05 07:29:39;;;;;;;5.07;2.87;;;7.00;99.90;;;;;;4972760;28;21443;-75
2023/04/05 07:32:06;;;;;;;6.33;3.27;;;7.10;99.90;;;;;;4971879;28;20210;-75
2023/04/05 07:34:33;;;;;;;5.17;3.30;;;7.30;99.90;;;;;;4991957;28;20179;-77
2023/04/05 07:36:58;;;;;;;7.80;3.23;;;8.10;99.90;;;;;;4973263;28;20552;-78
2023/04/05 07:39:24;;;;;;;6.70;3.30;;;8.90;99.90;;;;;;4984254;28;20210;-77
2023/04/05 07:41:50;;;;;;;7.20;3.43;;;9.40;99.90;;;;;;4979842;28;20759;-76
2023/04/05 07:44:16;;;;;;;7.40;3.13;;;10.10;99.90;;;;;;4972026;28;20345;-76
2023/04/05 07:46:44;;;;;;;5.30;3.37;;;10.90;99.90;;;;;;4980283;28;20285;-76
2023/04/05 07:49:13;;;;;;;6.90;4.23;;;12.50;99.90;;;;;;4982166;28;20201;-76
2023/04/05 07:51:39;;;;;;;8.52;3.75;;;13.10;99.90;;;;;;4975549;28;20628;-77
2023/04/05 07:54:05;;;;;;;7.88;4.07;;;14.00;99.90;;;;;;4980071;28;20221;-77
2023/04/05 07:56:31;;;;;;;7.03;4.00;;;15.00;99.90;;;;;;4978795;28;20776;-77
2023/04/05 07:59:00;;;;;;;7.00;3.83;;;14.90;99.90;;;;;;4982430;28;20632;-77
2023/04/05 08:01:26;;;;;;;7.18;4.88;;;16.00;99.90;;;;;;4984319;28;20676;-77
2023/04/05 08:03:53;;;;;;;8.18;4.50;;;15.20;99.90;;;;;;4981053;28;20174;-77
2023/04/05 08:06:19;;;;;;;7.78;3.92;;;14.40;99.90;;;;;;4977298;28;20210;-77
2023/04/05 08:08:45;;;;;;;10.95;4.85;;;13.10;99.90;;;;;;4974127;28;20621;-76
2023/04/05 08:11:12;;;;;;;8.77;4.57;;;13.30;99.90;;;;;;4972787;28;20218;-76
2023/04/05 08:13:40;;;;;;;8.32;5.22;;;12.90;99.90;;;;;;4974933;28;20233;-78
2023/04/05 08:16:07;;;;;;;7.35;4.30;;;12.00;99.90;;;;;;4976057;28;20182;-77
2023/04/05 08:18:33;;;;;;;11.73;7.68;;;12.00;99.90;;;;;;4981308;28;20218;-76
2023/04/05 08:20:59;;;;;;;7.10;4.60;;;11.80;99.90;;;;;;4983082;28;20205;-79
2023/04/05 08:23:26;;;;;;;8.85;4.70;;;11.70;99.90;;;;;;4974775;28;20202;-77
2023/04/05 08:25:52;;;;;;;11.48;5.72;;;11.70;99.90;;;;;;4975874;28;20228;-77
2023/04/05 08:28:18;;;;;;;10.68;4.55;;;12.00;99.90;;;;;;4975227;28;20210;-78
2023/04/05 08:30:47;;;;;;;9.10;4.40;;;12.00;99.90;;;;;;4977825;28;20197;-76
2023/04/05 08:33:13;;;;;;;8.68;4.78;;;12.00;99.90;;;;;;4980850;28;20665;-76
2023/04/05 08:35:39;;;;;;;10.68;4.88;;;11.70;99.90;;;;;;4982712;28;20222;-76
2023/04/05 08:38:08;;;;;;;9.23;4.55;;;12.10;99.90;;;;;;4982583;28;20253;-77
2023/04/05 08:40:44;;;;;;;7.55;4.45;;;11.90;99.90;;;;;;4980787;28;20305;-77
2023/04/05 08:43:21;;;;;;;8.15;4.57;;;11.60;99.90;;;;;;4980970;28;20217;-77
2023/04/05 08:45:49;;;;;;;9.40;4.40;;;11.30;99.90;;;;;;4981248;28;20268;-77
2023/04/05 08:48:16;;;;;;;8.50;4.25;;;11.80;99.90;;;;;;4978926;28;20214;-78
2023/04/05 08:50:48;;;;;;;7.05;4.50;;;12.00;99.90;;;;;;4977789;28;20708;-77
2023/04/05 08:53:14;;;;;;;11.23;4.78;;;12.20;99.90;;;;;;4981767;28;20994;-78
2023/04/05 08:55:40;;;;;;;7.43;4.82;;;12.40;99.90;;;;;;4984326;28;20221;-77
2023/04/05 08:58:12;;;;;;;8.93;5.05;;;12.10;99.90;;;;;;4977664;28;20210;-76
2023/04/05 09:00:39;;;;;;;8.02;4.50;;;12.50;99.90;;;;;;4984085;28;20878;-75
2023/04/05 09:03:07;;;;;;;7.10;4.65;;;11.90;99.90;;;;;;4984271;28;20205;-75
2023/04/05 09:05:44;;;;;;;6.60;4.45;;;12.20;99.90;;;;;;4988607;28;20218;-80
2023/04/05 09:08:10;;;;;;;7.28;4.60;;;12.10;99.90;;;;;;4979679;28;20206;-77
2023/04/05 09:10:36;;;;;;;7.30;3.95;;;12.40;99.90;;;;;;4976380;28;20207;-77
2023/04/05 09:13:02;;;;;;;8.57;3.83;;;12.50;99.90;;;;;;4978044;28;20563;-75
2023/04/05 09:15:28;;;;;;;6.60;3.88;;;12.50;99.90;;;;;;4983106;28;20214;-76
2023/04/05 09:17:55;;;;;;;9.70;4.50;;;12.40;99.90;;;;;;4977180;28;20708;-76
2023/04/05 09:20:21;;;;;;;8.27;4.95;;;12.50;99.90;;;;;;4973766;28;20210;-76
2023/04/05 09:22:47;;;;;;;8.43;4.00;;;12.50;99.90;;;;;;4980316;28;20255;-76
2023/04/05 09:25:32;;;;;;;8.25;3.95;;;12.20;99.90;;;;;;4977101;28;20194;-75
2023/04/05 09:27:59;;;;;;;8.63;4.32;;;12.10;99.90;;;;;;4972640;28;20673;-77
2023/04/05 09:30:29;;;;;;;6.85;4.20;;;12.10;99.90;;;;;;4975072;28;20214;-75
2023/04/05 09:32:56;;;;;;;7.63;3.83;;;12.30;99.90;;;;;;4977913;28;20287;-77
2023/04/05 09:35:28;;;;;;;5.63;4.15;;;11.90;99.90;;;;;;4987822;28;20221;-76
2023/04/05 09:37:57;;;;;;;6.70;3.90;;;11.80;99.90;;;;;;4973951;28;20579;-76
2023/04/05 09:40:39;;;;;;;5.45;3.72;;;11.40;99.90;;;;;;4982041;28;20276;-75
2023/04/05 09:43:05;;;;;;;8.25;4.28;;;11.10;99.90;;;;;;4976197;28;20182;-76
2023/04/05 09:45:46;;;;;;;5.70;3.85;;;11.30;99.90;;;;;;4975355;28;20217;-76
2023/04/05 09:48:12;;;;;;;8.13;3.95;;;11.60;99.90;;;;;;4979970;28;20293;-77
2023/04/05 09:50:38;;;;;;;5.72;3.60;;;12.20;99.90;;;;;;4973178;28;20210;-76
2023/04/05 09:53:17;;;;;;;7.68;3.83;;;11.40;99.90;;;;;;4976490;28;20735;-76
2023/04/05 09:55:43;;;;;;;5.77;3.47;;;11.20;99.90;;;;;;4979802;28;20209;-78
2023/04/05 09:58:21;;;;;;;9.38;3.83;;;11.30;99.90;;;;;;4976087;28;20210;-77
2023/04/05 10:00:52;;;;;;;8.40;5.32;;;11.20;99.90;;;;;;4975833;28;20333;-76
2023/04/05 10:03:19;;;;;;;6.37;4.03;;;11.10;99.90;;;;;;4974266;28;20214;-76
2023/04/05 10:05:44;;;;;;;7.57;4.43;;;11.20;99.90;;;;;;4977423;28;20632;-76
2023/04/05 10:08:10;;;;;;;10.97;4.23;;;11.50;99.90;;;;;;4974677;28;20210;-77
2023/04/05 10:10:45;;;;;;;7.03;3.90;;;11.40;99.90;;;;;;4974200;28;20688;-76
2023/04/05 10:13:12;;;;;;;7.20;3.57;;;10.70;99.90;;;;;;4975968;28;20178;-76
2023/04/05 10:15:39;;;;;;;5.40;3.57;;;11.10;99.90;;;;;;4976894;28;20674;-74
2023/04/05 10:18:14;;;;;;;8.23;4.00;;;11.20;99.90;;;;;;4986786;28;20260;-75
2023/04/05 10:20:46;;;;;;;4.43;3.50;;;11.10;99.90;;;;;;4984673;28;20219;-77
2023/04/05 10:23:23;;;;;;;6.70;3.87;;;10.30;99.90;;;;;;4986807;28;20256;-76
2023/04/05 10:25:52;;;;;;;7.10;3.67;;;10.10;99.90;;;;;;4981101;28;20198;-75
2023/04/05 10:28:33;;;;;;;5.80;3.77;;;9.90;99.90;;;;;;4973429;28;20226;-75
2023/04/05 10:31:24;;;;;;;6.47;3.97;;;9.60;99.90;;;;;;4992528;28;20274;-76
2023/04/05 10:33:58;;;;;;;6.47;3.33;;;9.80;99.90;;;;;;4974342;28;20229;-74
2023/04/05 10:36:48;;;;;;;7.63;3.60;;;10.00;99.90;;;;;;4973635;28;20240;-75
2023/04/05 10:39:33;;;;;;;7.70;4.37;;;9.90;99.90;;;;;;4980213;28;20238;-75
2023/04/05 10:42:20;;;;;;;7.07;3.90;;;9.60;99.90;;;;;;4974143;28;20206;-76
2023/04/05 10:44:52;;;;;;;9.23;4.13;;;9.90;99.90;;;;;;4972716;28;20213;-76
2023/04/05 10:47:22;;;;;;;5.83;3.70;;;9.90;99.90;;;;;;4973241;28;20202;-77
2023/04/05 10:49:51;;;;;;;5.67;3.77;;;10.10;99.90;;;;;;4979804;28;20693;-77
2023/04/05 10:52:17;;;;;;;7.73;3.70;;;9.60;99.90;;;;;;4981388;28;20264;-76
2023/04/05 10:54:44;;;;;;;5.40;3.37;;;9.20;99.90;;;;;;4978902;28;20643;-76
2023/04/05 10:57:11;;;;;;;6.10;3.83;;;9.40;99.90;;;;;;4979751;28;20213;-75
2023/04/05 10:59:42;;;;;;;6.23;3.80;;;9.30;99.90;;;;;;4971544;28;20626;-76
2023/04/05 11:02:08;;;;;;;7.80;4.30;;;9.20;99.90;;;;;;4972833;28;20293;-76
2023/04/05 11:04:34;;;;;;;5.73;3.57;;;9.10;99.90;;;;;;4971364;28;20241;-76
2023/04/05 11:07:10;;;;;;;6.03;4.07;;;9.30;99.90;;;;;;4972073;28;20186;-75
2023/04/05 11:09:39;;;;;;;6.03;3.50;;;9.60;99.90;;;;;;4974537;28;20210;-76
2023/04/05 11:12:05;;;;;;;7.57;4.03;;;9.80;99.90;;;;;;4977408;28;20206;-76
2023/04/05 11:14:34;;;;;;;7.90;3.40;;;10.10;99.90;;;;;;4983668;28;20218;-74
2023/04/05 11:17:01;;;;;;;5.63;3.27;;;10.20;99.90;;;;;;4972250;28;20281;-76
2023/04/05 11:19:52;;;;;;;6.30;3.57;;;10.20;99.90;;;;;;4974380;28;20754;-76
2023/04/05 11:22:28;;;;;;;7.67;4.17;;;10.20;99.90;;;;;;4984016;28;20285;-75
2023/04/05 11:24:57;;;;;;;4.93;3.00;;;10.10;99.90;;;;;;4976244;28;20170;-77
2023/04/05 11:27:27;;;;;;;4.63;3.10;;;10.50;99.90;;;;;;4968884;28;20215;-77
2023/04/05 11:29:56;;;;;;;8.13;3.90;;;10.40;99.90;;;;;;4970419;28;20210;-76
2023/04/05 11:32:22;;;;;;;4.03;3.33;;;10.30;99.90;;;;;;4972183;28;20241;-76
2023/04/05 11:34:59;;;;;;;8.00;3.90;;;10.40;99.90;;;;;;4974448;28;20301;-76
2023/04/05 11:37:54;;;;;;;4.43;3.17;;;10.30;99.90;;;;;;4978392;28;20199;-76
2023/04/05 11:40:35;;;;;;;5.10;3.27;;;10.30;99.90;;;;;;4974423;28;20646;-75
2023/04/05 11:43:10;;;;;;;4.37;2.77;;;10.30;99.90;;;;;;4965599;28;20785;-75
2023/04/05 11:45:40;;;;;;;6.43;3.50;;;9.60;99.90;;;;;;4974162;28;20197;-76
2023/04/05 11:48:12;;;;;;;4.40;2.90;;;9.70;99.90;;;;;;4975653;28;20222;-77
2023/04/05 11:50:40;;;;;;;5.67;3.23;;;9.70;99.90;;;;;;4968693;28;20206;-76
2023/04/05 11:53:15;;;;;;;5.70;3.43;;;9.90;99.90;;;;;;4974290;28;20313;-78
2023/04/05 11:55:46;;;;;;;6.90;3.00;;;10.00;99.90;;;;;;4972354;28;20224;-80
2023/04/05 11:58:22;;;;;;;8.43;3.30;;;10.10;99.90;;;;;;4972128;28;20202;-77
2023/04/05 12:01:02;;;;;;;5.70;3.13;;;10.20;99.90;;;;;;4971703;28;20649;-76
2023/04/05 12:03:28;;;;;;;8.23;3.30;;;10.00;99.90;;;;;;4973125;28;20739;-77
2023/04/05 12:05:57;;;;;;;3.47;2.67;;;9.30;99.90;;;;;;4971678;28;20203;-77
2023/04/05 12:08:36;;;;;;;5.17;3.23;;;9.10;99.90;;;;;;4971657;28;20213;-77
2023/04/05 12:11:01;;;;;;;5.93;3.10;;;9.00;99.90;;;;;;4974828;28;20170;-75
2023/04/05 12:13:31;;;;;;;6.33;3.03;;;9.40;99.90;;;;;;4971615;28;20661;-76
2023/04/05 12:15:59;;;;;;;8.13;2.97;;;9.50;99.90;;;;;;4967312;28;20175;-76
2023/04/05 12:18:28;;;;;;;6.30;2.97;;;9.30;99.90;;;;;;4969972;28;20215;-76
2023/04/05 12:20:54;;;;;;;6.33;2.77;;;9.30;99.90;;;;;;4969242;28;20276;-76
2023/04/05 12:23:21;;;;;;;5.07;2.70;;;8.90;99.90;;;;;;4971948;28;20206;-77
2023/04/05 12:25:52;;;;;;;10.00;2.80;;;8.90;99.90;;;;;;4970865;28;20226;-76
2023/04/05 12:28:18;;;;;;;4.40;2.73;;;8.70;99.90;;;;;;4972427;28;20202;-77
2023/04/05 12:30:56;;;;;;;6.10;2.87;;;9.20;99.90;;;;;;4971297;28;20530;-78
2023/04/05 12:33:31;;;;;;;4.97;2.80;;;9.50;99.90;;;;;;4971894;28;20206;-78
2023/04/05 12:35:57;;;;;;;7.20;3.20;;;9.00;99.90;;;;;;4971151;28;20210;-75
2023/04/05 12:38:28;;;;;;;5.07;2.63;;;8.90;99.90;;;;;;4971688;28;20214;-76
2023/04/05 12:40:54;;;;;;;4.83;2.23;;;9.00;99.90;;;;;;4971061;28;20261;-75
2023/04/05 12:43:19;;;;;;;4.60;2.63;;;8.70;99.90;;;;;;4970262;28;20202;-76
2023/04/05 12:45:46;;;;;;;5.57;2.60;;;8.70;99.90;;;;;;4970294;28;20551;-77
2023/04/05 12:48:13;;;;;;;4.23;2.87;;;8.70;99.90;;;;;;4970029;28;20217;-76
2023/04/05 12:50:44;;;;;;;3.43;2.70;;;9.10;99.90;;;;;;4969834;28;20202;-76
2023/04/05 12:53:22;;;;;;;4.90;2.90;;;9.00;99.90;;;;;;4970025;28;20576;-76
2023/04/05 12:55:52;;;;;;;5.40;2.80;;;9.30;99.90;;;;;;4969574;28;20226;-77
2023/04/05 12:58:30;;;;;;;5.73;2.50;;;9.40;99.90;;;;;;4970943;28;20216;-76
2023/04/05 13:00:57;;;;;;;6.57;2.80;;;9.10;99.90;;;;;;4971141;28;20189;-77